Terminal Aerodrome Forecast
Issued by NWS Mobile, AL

Current Version | Previous Version | Text Only | Print | Product List | Glossary On
Versions: 1 2 3 4 5 6 7 8 9 10 11 12 13 14 15 16 17 18 19 20 21 22 23 24
000
FTUS44 KMOB 220500
TAFMOB
TAF
KMOB 220538Z 2206/2306 26003KT P6SM SCT250
      TEMPO 2210/2212 5SM BR
     FM221500 34004KT P6SM SCT035
     FM221900 23007KT P6SM VCTS SCT040CB
     FM230000 25003KT P6SM FEW040 SCT250=

USA.gov is the U.S. government's official web portal to all federal, state and local government web resources and services.